createdAt,value
2019-04-07T00:03:40.063Z,9.55
2019-04-07T00:08:48.654Z,9.68
2019-04-07T00:13:56.355Z,9.43
2019-04-07T00:19:02.016Z,9.25
2019-04-07T00:24:08.311Z,9.43
2019-04-07T00:29:14.465Z,9.26
2019-04-07T00:34:20.552Z,9.26
2019-04-07T00:39:28.956Z,9.04
2019-04-07T00:44:34.599Z,9.09
2019-04-07T00:49:45.412Z,8.91
2019-04-07T00:54:54.543Z,8.92
2019-04-07T01:00:10.595Z,9.04
2019-04-07T01:05:16.891Z,8.82
2019-04-07T01:10:24.217Z,8.79
2019-04-07T01:15:33.080Z,8.69
2019-04-07T01:20:38.826Z,8.59
2019-04-07T01:25:47.326Z,8.52
2019-04-07T01:30:53.413Z,8.40
2019-04-07T01:35:59.830Z,8.44
2019-04-07T01:41:18.616Z,8.62
2019-04-07T01:46:35.375Z,8.29
2019-04-07T01:51:58.643Z,8.17
2019-04-07T01:57:27.038Z,8.20
2019-04-07T02:02:54.545Z,8.14
2019-04-07T02:08:15.787Z,8.09
2019-04-07T02:13:47.259Z,8.04
2019-04-07T02:19:19.012Z,7.84
2019-04-07T02:24:37.446Z,8.06
2019-04-07T02:30:21.706Z,7.98
2019-04-07T02:35:37.798Z,7.88
2019-04-07T02:40:59.899Z,7.66
2019-04-07T02:46:27.024Z,7.69
2019-04-07T02:51:45.498Z,7.64
2019-04-07T02:57:14.219Z,7.45
2019-04-07T03:02:49.621Z,7.59
2019-04-07T03:08:23.832Z,7.41
2019-04-07T03:13:52.509Z,7.45
2019-04-07T03:19:19.287Z,7.07
2019-04-07T03:24:30.547Z,7.43
2019-04-07T03:29:56.686Z,7.15
2019-04-07T03:35:17.246Z,7.07
2019-04-07T03:40:31.922Z,6.93
2019-04-07T03:45:53.924Z,6.98
2019-04-07T03:51:17.317Z,7.09
2019-04-07T03:56:54.117Z,6.91
2019-04-07T04:02:18.553Z,6.90
2019-04-07T04:07:36.615Z,6.81
2019-04-07T04:13:09.097Z,6.80
2019-04-07T04:18:16.212Z,6.92
2019-04-07T04:23:23.210Z,7.02
2019-04-07T04:28:29.175Z,6.74
2019-04-07T04:33:35.994Z,6.75
2019-04-07T04:38:42.389Z,6.65
2019-04-07T04:43:48.058Z,6.61
2019-04-07T04:48:56.648Z,6.47
2019-04-07T04:54:01.341Z,6.57
2019-04-07T04:59:14.871Z,6.82
2019-04-07T05:04:20.797Z,6.84
2019-04-07T05:09:41.880Z,7.12
2019-04-07T05:14:41.245Z,7.42
2019-04-07T05:19:47.685Z,7.70
2019-04-07T05:24:55.562Z,7.90
2019-04-07T05:30:02.376Z,8.21
2019-04-07T05:35:10.500Z,8.82
2019-04-07T05:40:16.885Z,8.91
2019-04-07T05:45:23.861Z,8.96
2019-04-07T05:50:30.667Z,9.13
2019-04-07T05:55:37.212Z,9.49
2019-04-07T06:00:45.753Z,9.65
2019-04-07T06:05:52.833Z,9.88
2019-04-07T06:11:01.539Z,10.13
2019-04-07T06:16:13.127Z,10.61
2019-04-07T06:21:19.225Z,10.46
2019-04-07T06:26:28.291Z,10.87
2019-04-07T06:31:34.817Z,10.85
2019-04-07T06:36:40.851Z,11.09
2019-04-07T06:41:47.630Z,11.70
2019-04-07T06:47:05.502Z,12.18
2019-04-07T06:52:34.687Z,12.22
2019-04-07T06:57:54.986Z,12.99
2019-04-07T07:03:14.866Z,12.20
2019-04-07T07:08:45.720Z,13.49
2019-04-07T07:14:14.416Z,13.21
2019-04-07T07:19:45.920Z,13.32
2019-04-07T07:24:56.457Z,13.15
2019-04-07T07:30:02.858Z,13.02
2019-04-07T07:35:12.594Z,14.44
2019-04-07T07:40:18.320Z,13.91
2019-04-07T07:45:25.089Z,14.53
2019-04-07T07:50:38.087Z,14.98
2019-04-07T07:55:44.492Z,15.43
2019-04-07T08:00:50.639Z,16.19
2019-04-07T08:05:57.865Z,15.75
2019-04-07T08:11:05.822Z,15.50
2019-04-07T08:16:12.305Z,14.89
2019-04-07T08:21:19.959Z,15.80
2019-04-07T08:26:26.072Z,16.23
2019-04-07T08:31:32.691Z,16.46
2019-04-07T08:36:42.500Z,15.53
2019-04-07T08:41:47.188Z,15.74
2019-04-07T08:46:55.860Z,16.25
2019-04-07T08:52:08.022Z,16.49
2019-04-07T08:57:10.935Z,17.58
2019-04-07T09:02:19.004Z,17.50
2019-04-07T09:07:27.681Z,17.42
2019-04-07T09:12:35.003Z,17.03
2019-04-07T09:17:47.444Z,16.85
2019-04-07T09:23:16.012Z,16.76
2019-04-07T09:28:45.427Z,16.17
2019-04-07T09:34:13.641Z,17.05
2019-04-07T09:39:53.977Z,16.84
2019-04-07T09:45:00.330Z,16.99
2019-04-07T09:50:35.456Z,17.16
2019-04-07T09:56:09.930Z,17.50
2019-04-07T10:01:37.219Z,17.28
2019-04-07T10:07:03.662Z,17.27
2019-04-07T10:12:18.505Z,16.97
2019-04-07T10:17:34.146Z,17.48
2019-04-07T10:23:03.071Z,17.68
2019-04-07T10:28:32.386Z,17.92
2019-04-07T10:34:06.166Z,17.80
2019-04-07T10:39:39.156Z,18.28
2019-04-07T10:45:09.003Z,17.77
2019-04-07T10:50:38.374Z,17.95
2019-04-07T10:55:58.917Z,18.51
2019-04-07T11:01:43.573Z,18.51
2019-04-07T11:07:14.551Z,18.17
2019-04-07T11:18:58.521Z,17.80
2019-04-07T11:24:44.653Z,18.41
2019-04-07T11:30:15.977Z,18.73
2019-04-07T11:35:32.390Z,18.65
2019-04-07T11:40:51.155Z,18.96
2019-04-07T11:46:06.881Z,19.25
2019-04-07T11:51:50.689Z,18.65
2019-04-07T11:57:22.581Z,19.02
2019-04-07T12:02:54.517Z,19.04
2019-04-07T12:08:36.174Z,19.27
2019-04-07T12:13:57.295Z,18.84
2019-04-07T12:19:14.804Z,18.29
2019-04-07T12:24:57.535Z,19.20
2019-04-07T12:30:34.329Z,19.30
2019-04-07T12:35:56.225Z,19.74
2019-04-07T12:41:35.937Z,19.83
2019-04-07T12:47:03.716Z,20.72
2019-04-07T12:52:36.670Z,20.60
2019-04-07T12:57:56.925Z,19.17
2019-04-07T13:03:36.459Z,18.47
2019-04-07T13:08:58.214Z,18.84
2019-04-07T13:14:30.648Z,19.75
2019-04-07T13:19:51.415Z,18.91
2019-04-07T13:25:18.708Z,19.22
2019-04-07T13:30:39.404Z,20.05
2019-04-07T13:35:56.311Z,18.71
2019-04-07T13:41:20.310Z,19.59
2019-04-07T13:46:38.902Z,19.43
2019-04-07T13:51:53.259Z,19.22
2019-04-07T13:57:23.860Z,19.32
2019-04-07T14:02:59.310Z,19.95
2019-04-07T14:08:13.907Z,20.10
2019-04-07T14:13:40.395Z,19.38
2019-04-07T14:19:03.955Z,19.57
2019-04-07T14:24:23.898Z,19.00
2019-04-07T14:30:06.545Z,19.46
2019-04-07T14:35:34.800Z,18.88
2019-04-07T14:41:09.690Z,18.92
2019-04-07T14:46:33.759Z,19.64
2019-04-07T14:52:13.415Z,19.21
2019-04-07T14:57:35.143Z,19.17
2019-04-07T15:02:41.786Z,19.11
2019-04-07T15:08:11.677Z,18.72
2019-04-07T15:13:25.796Z,18.55
2019-04-07T15:18:29.776Z,18.52
2019-04-07T15:23:36.854Z,18.77
2019-04-07T15:28:43.637Z,18.68
2019-04-07T15:33:53.323Z,18.74
2019-04-07T15:39:01.291Z,18.47
2019-04-07T15:44:12.923Z,18.36
2019-04-07T15:49:16.882Z,18.54
2019-04-07T15:54:25.297Z,18.47
2019-04-07T15:59:31.741Z,18.34
2019-04-07T16:04:40.789Z,18.20
2019-04-07T16:09:52.541Z,17.95
2019-04-07T16:14:54.781Z,18.05
2019-04-07T16:20:02.411Z,18.04
2019-04-07T16:25:11.465Z,17.88
2019-04-07T16:30:29.011Z,17.71
2019-04-07T16:35:39.843Z,17.84
2019-04-07T16:40:46.732Z,17.63
2019-04-07T16:45:54.726Z,17.81
2019-04-07T16:51:03.181Z,17.95
2019-04-07T16:56:11.306Z,17.91
2019-04-07T17:01:18.512Z,17.84
2019-04-07T17:06:31.349Z,17.87
2019-04-07T17:11:37.865Z,17.73
2019-04-07T17:16:45.393Z,17.71
2019-04-07T17:21:51.899Z,17.73
2019-04-07T17:27:03.139Z,17.70
2019-04-07T17:32:12.240Z,17.88
2019-04-07T17:37:25.362Z,17.48
2019-04-07T17:42:34.831Z,17.45
2019-04-07T17:48:02.961Z,17.29
2019-04-07T17:53:32.999Z,17.27
2019-04-07T17:58:58.725Z,17.12
2019-04-07T18:04:24.991Z,17.06
2019-04-07T18:09:53.295Z,16.96
2019-04-07T18:15:18.581Z,16.96
2019-04-07T18:20:42.655Z,16.84
2019-04-07T18:25:58.754Z,16.72
2019-04-07T18:31:29.310Z,16.82
2019-04-07T18:37:15.783Z,16.66
2019-04-07T18:42:49.022Z,16.69
2019-04-07T18:48:19.144Z,16.63
2019-04-07T18:53:43.539Z,16.64
2019-04-07T18:59:00.200Z,16.56
2019-04-07T19:04:28.138Z,16.52
2019-04-07T19:10:06.435Z,16.62
2019-04-07T19:15:24.026Z,16.50
2019-04-07T19:21:09.053Z,16.45
2019-04-07T19:26:41.085Z,16.60
2019-04-07T19:32:04.497Z,16.59
2019-04-07T19:37:22.940Z,16.70
2019-04-07T19:42:49.523Z,16.40
2019-04-07T19:48:17.654Z,16.34
2019-04-07T19:53:45.578Z,16.30
2019-04-07T19:59:18.048Z,16.24
2019-04-07T20:04:44.148Z,16.01
2019-04-07T20:10:01.094Z,15.98
2019-04-07T20:15:36.069Z,15.87
2019-04-07T20:20:57.217Z,16.07
2019-04-07T20:26:24.841Z,15.84
2019-04-07T20:31:54.596Z,15.82
2019-04-07T20:37:17.208Z,15.71
2019-04-07T20:42:38.846Z,15.68
2019-04-07T20:48:03.728Z,15.67
2019-04-07T20:53:46.932Z,15.70
2019-04-07T21:05:27.056Z,15.54
2019-04-07T21:10:53.933Z,15.63
2019-04-07T21:16:17.711Z,15.28
2019-04-07T21:21:46.493Z,15.29
2019-04-07T21:27:14.414Z,15.03
2019-04-07T21:32:42.009Z,15.17
2019-04-07T21:38:20.835Z,15.17
2019-04-07T21:43:55.450Z,14.98
2019-04-07T21:49:35.382Z,14.84
2019-04-07T21:54:58.015Z,14.78
2019-04-07T22:00:34.961Z,14.51
2019-04-07T22:05:54.470Z,14.40
2019-04-07T22:11:00.048Z,14.33
2019-04-07T22:16:08.580Z,14.17
2019-04-07T22:21:14.944Z,14.14
2019-04-07T22:26:22.153Z,14.02
2019-04-07T22:31:33.207Z,14.14
2019-04-07T22:36:41.657Z,13.35
2019-04-07T22:41:48.596Z,13.46
2019-04-07T22:46:54.640Z,13.69
2019-04-07T22:52:01.985Z,13.50
2019-04-07T22:57:10.302Z,13.04
2019-04-07T23:02:15.893Z,13.26
2019-04-07T23:07:25.334Z,13.11
2019-04-07T23:12:32.787Z,12.73
2019-04-07T23:17:43.716Z,12.52
2019-04-07T23:22:49.970Z,12.46
2019-04-07T23:27:56.500Z,12.73
2019-04-07T23:33:04.210Z,12.37
2019-04-07T23:38:12.247Z,12.20
2019-04-07T23:43:17.897Z,12.21
2019-04-07T23:48:24.301Z,12.25
2019-04-07T23:54:09.143Z,12.03
2019-04-07T23:59:16.775Z,11.85
